sensor_id;sensor_type;location;lat;lon;timestamp;temperature;humidity
21039;DHT22;10678;51.002;4.786;2023-10-31T00:01:50;12.90;99.90
21039;DHT22;10678;51.002;4.786;2023-10-31T00:04:16;12.90;99.90
21039;DHT22;10678;51.002;4.786;2023-10-31T00:06:41;12.90;99.90
21039;DHT22;10678;51.002;4.786;2023-10-31T00:09:08;12.90;99.90
21039;DHT22;10678;51.002;4.786;2023-10-31T00:11:36;12.70;99.90
21039;DHT22;10678;51.002;4.786;2023-10-31T00:14:02;12.70;99.90
21039;DHT22;10678;51.002;4.786;2023-10-31T00:16:27;12.70;99.90
21039;DHT22;10678;51.002;4.786;2023-10-31T00:18:53;12.70;99.90
21039;DHT22;10678;51.002;4.786;2023-10-31T00:21:19;12.60;99.90
21039;DHT22;10678;51.002;4.786;2023-10-31T00:23:46;12.60;99.90
21039;DHT22;10678;51.002;4.786;2023-10-31T00:26:12;12.60;99.90
21039;DHT22;10678;51.002;4.786;2023-10-31T00:28:38;12.70;99.90
21039;DHT22;10678;51.002;4.786;2023-10-31T00:31:03;12.70;99.90
21039;DHT22;10678;51.002;4.786;2023-10-31T00:33:30;12.70;99.90
21039;DHT22;10678;51.002;4.786;2023-10-31T00:35:56;12.80;99.90
21039;DHT22;10678;51.002;4.786;2023-10-31T00:38:21;12.80;99.90
21039;DHT22;10678;51.002;4.786;2023-10-31T00:40:47;12.80;99.90
21039;DHT22;10678;51.002;4.786;2023-10-31T00:43:13;12.80;99.90
21039;DHT22;10678;51.002;4.786;2023-10-31T00:45:38;12.80;99.90
21039;DHT22;10678;51.002;4.786;2023-10-31T00:48:04;12.80;99.90
21039;DHT22;10678;51.002;4.786;2023-10-31T00:50:30;12.90;99.90
21039;DHT22;10678;51.002;4.786;2023-10-31T00:52:55;12.90;99.90
21039;DHT22;10678;51.002;4.786;2023-10-31T00:55:21;12.90;99.90
21039;DHT22;10678;51.002;4.786;2023-10-31T00:57:46;12.90;99.90
21039;DHT22;10678;51.002;4.786;2023-10-31T01:00:12;12.90;99.90
21039;DHT22;10678;51.002;4.786;2023-10-31T01:02:38;12.90;99.90
21039;DHT22;10678;51.002;4.786;2023-10-31T01:05:04;13.00;99.90
21039;DHT22;10678;51.002;4.786;2023-10-31T01:07:30;13.00;99.90
21039;DHT22;10678;51.002;4.786;2023-10-31T01:09:55;12.90;99.90
21039;DHT22;10678;51.002;4.786;2023-10-31T01:12:21;13.00;99.90
21039;DHT22;10678;51.002;4.786;2023-10-31T01:14:47;13.00;99.90
21039;DHT22;10678;51.002;4.786;2023-10-31T01:17:12;13.00;99.90
21039;DHT22;10678;51.002;4.786;2023-10-31T01:19:38;13.00;99.90
21039;DHT22;10678;51.002;4.786;2023-10-31T01:22:04;13.00;99.90
21039;DHT22;10678;51.002;4.786;2023-10-31T01:24:29;13.00;99.90
21039;DHT22;10678;51.002;4.786;2023-10-31T01:26:55;12.90;99.90
21039;DHT22;10678;51.002;4.786;2023-10-31T01:29:20;13.00;99.90
21039;DHT22;10678;51.002;4.786;2023-10-31T01:31:46;13.00;99.90
21039;DHT22;10678;51.002;4.786;2023-10-31T01:34:12;12.90;99.90
21039;DHT22;10678;51.002;4.786;2023-10-31T01:36:37;13.00;99.90
21039;DHT22;10678;51.002;4.786;2023-10-31T01:39:03;12.90;99.90
21039;DHT22;10678;51.002;4.786;2023-10-31T01:41:29;12.90;99.90
21039;DHT22;10678;51.002;4.786;2023-10-31T01:43:54;12.90;99.90
21039;DHT22;10678;51.002;4.786;2023-10-31T01:46:20;13.00;99.90
21039;DHT22;10678;51.002;4.786;2023-10-31T01:48:46;13.00;99.90
21039;DHT22;10678;51.002;4.786;2023-10-31T01:51:11;13.10;99.90
21039;DHT22;10678;51.002;4.786;2023-10-31T01:53:37;13.00;99.90
21039;DHT22;10678;51.002;4.786;2023-10-31T01:56:03;13.00;99.90
21039;DHT22;10678;51.002;4.786;2023-10-31T01:58:32;13.10;99.90
21039;DHT22;10678;51.002;4.786;2023-10-31T02:00:59;13.00;99.90
21039;DHT22;10678;51.002;4.786;2023-10-31T02:03:27;13.00;99.90
21039;DHT22;10678;51.002;4.786;2023-10-31T02:05:52;12.90;99.90
21039;DHT22;10678;51.002;4.786;2023-10-31T02:08:19;12.90;99.90
21039;DHT22;10678;51.002;4.786;2023-10-31T02:10:44;12.90;99.90
21039;DHT22;10678;51.002;4.786;2023-10-31T02:13:14;12.90;99.90
21039;DHT22;10678;51.002;4.786;2023-10-31T02:15:40;12.90;99.90
21039;DHT22;10678;51.002;4.786;2023-10-31T02:18:07;12.90;99.90
21039;DHT22;10678;51.002;4.786;2023-10-31T02:20:33;13.00;99.90
21039;DHT22;10678;51.002;4.786;2023-10-31T02:22:59;13.00;99.90
21039;DHT22;10678;51.002;4.786;2023-10-31T02:25:25;13.00;99.90
21039;DHT22;10678;51.002;4.786;2023-10-31T02:27:51;13.00;99.90
21039;DHT22;10678;51.002;4.786;2023-10-31T02:30:16;13.00;99.90
21039;DHT22;10678;51.002;4.786;2023-10-31T02:32:42;12.90;99.90
21039;DHT22;10678;51.002;4.786;2023-10-31T02:35:08;12.80;99.90
21039;DHT22;10678;51.002;4.786;2023-10-31T02:37:34;12.90;99.90
21039;DHT22;10678;51.002;4.786;2023-10-31T02:40:00;12.80;99.90
21039;DHT22;10678;51.002;4.786;2023-10-31T02:42:26;12.80;99.90
21039;DHT22;10678;51.002;4.786;2023-10-31T02:44:53;12.80;99.90
21039;DHT22;10678;51.002;4.786;2023-10-31T02:47:19;12.70;99.90
21039;DHT22;10678;51.002;4.786;2023-10-31T02:49:44;12.70;99.90
21039;DHT22;10678;51.002;4.786;2023-10-31T02:52:10;12.70;99.90
21039;DHT22;10678;51.002;4.786;2023-10-31T02:54:36;12.70;99.90
21039;DHT22;10678;51.002;4.786;2023-10-31T02:57:02;12.70;99.90
21039;DHT22;10678;51.002;4.786;2023-10-31T02:59:28;12.60;99.90
21039;DHT22;10678;51.002;4.786;2023-10-31T03:01:55;12.70;99.90
21039;DHT22;10678;51.002;4.786;2023-10-31T03:04:21;12.70;99.90
21039;DHT22;10678;51.002;4.786;2023-10-31T03:06:46;12.60;99.90
21039;DHT22;10678;51.002;4.786;2023-10-31T03:09:12;12.70;99.90
21039;DHT22;10678;51.002;4.786;2023-10-31T03:11:38;12.70;99.90
21039;DHT22;10678;51.002;4.786;2023-10-31T03:14:03;12.70;99.90
21039;DHT22;10678;51.002;4.786;2023-10-31T03:16:29;12.70;99.90
21039;DHT22;10678;51.002;4.786;2023-10-31T03:18:54;12.60;99.90
21039;DHT22;10678;51.002;4.786;2023-10-31T03:21:20;12.60;99.90
21039;DHT22;10678;51.002;4.786;2023-10-31T03:23:50;12.60;99.90
21039;DHT22;10678;51.002;4.786;2023-10-31T03:26:19;12.60;99.90
21039;DHT22;10678;51.002;4.786;2023-10-31T03:28:45;12.60;99.90
21039;DHT22;10678;51.002;4.786;2023-10-31T03:31:11;12.50;99.90
21039;DHT22;10678;51.002;4.786;2023-10-31T03:33:37;12.50;99.90
21039;DHT22;10678;51.002;4.786;2023-10-31T03:36:04;12.40;99.90
21039;DHT22;10678;51.002;4.786;2023-10-31T03:38:33;12.40;99.90
21039;DHT22;10678;51.002;4.786;2023-10-31T03:41:00;12.40;99.90
21039;DHT22;10678;51.002;4.786;2023-10-31T03:43:25;12.40;99.90
21039;DHT22;10678;51.002;4.786;2023-10-31T03:45:51;12.40;99.90
21039;DHT22;10678;51.002;4.786;2023-10-31T03:48:17;12.40;99.90
21039;DHT22;10678;51.002;4.786;2023-10-31T03:50:43;12.40;99.90
21039;DHT22;10678;51.002;4.786;2023-10-31T03:53:09;12.50;99.90
21039;DHT22;10678;51.002;4.786;2023-10-31T03:55:35;12.60;99.90
21039;DHT22;10678;51.002;4.786;2023-10-31T03:58:01;12.60;99.90
21039;DHT22;10678;51.002;4.786;2023-10-31T04:00:26;12.60;99.90
21039;DHT22;10678;51.002;4.786;2023-10-31T04:02:52;12.50;99.90
21039;DHT22;10678;51.002;4.786;2023-10-31T04:05:18;12.60;99.90
21039;DHT22;10678;51.002;4.786;2023-10-31T04:07:44;12.60;99.90
21039;DHT22;10678;51.002;4.786;2023-10-31T04:10:10;12.60;99.90
21039;DHT22;10678;51.002;4.786;2023-10-31T04:12:36;12.50;99.90
21039;DHT22;10678;51.002;4.786;2023-10-31T04:15:02;12.50;99.90
21039;DHT22;10678;51.002;4.786;2023-10-31T04:17:28;12.50;99.90
21039;DHT22;10678;51.002;4.786;2023-10-31T04:19:54;12.50;99.90
21039;DHT22;10678;51.002;4.786;2023-10-31T04:22:19;12.40;99.90
21039;DHT22;10678;51.002;4.786;2023-10-31T04:24:45;12.30;99.90
21039;DHT22;10678;51.002;4.786;2023-10-31T04:27:11;12.30;99.90
21039;DHT22;10678;51.002;4.786;2023-10-31T04:29:36;12.30;99.90
21039;DHT22;10678;51.002;4.786;2023-10-31T04:32:02;12.30;99.90
21039;DHT22;10678;51.002;4.786;2023-10-31T04:34:28;12.20;99.90
21039;DHT22;10678;51.002;4.786;2023-10-31T04:36:53;12.20;99.90
21039;DHT22;10678;51.002;4.786;2023-10-31T04:39:19;12.10;99.90
21039;DHT22;10678;51.002;4.786;2023-10-31T04:41:44;12.20;99.90
21039;DHT22;10678;51.002;4.786;2023-10-31T04:44:10;12.20;99.90
21039;DHT22;10678;51.002;4.786;2023-10-31T04:46:36;12.10;99.90
21039;DHT22;10678;51.002;4.786;2023-10-31T04:49:01;12.00;99.90
21039;DHT22;10678;51.002;4.786;2023-10-31T04:51:27;11.90;99.90
21039;DHT22;10678;51.002;4.786;2023-10-31T04:53:53;12.00;99.90
21039;DHT22;10678;51.002;4.786;2023-10-31T04:56:19;11.90;99.90
21039;DHT22;10678;51.002;4.786;2023-10-31T04:58:44;11.90;99.90
21039;DHT22;10678;51.002;4.786;2023-10-31T05:01:12;11.90;99.90
21039;DHT22;10678;51.002;4.786;2023-10-31T05:03:38;11.80;99.90
21039;DHT22;10678;51.002;4.786;2023-10-31T05:06:04;11.80;99.90
21039;DHT22;10678;51.002;4.786;2023-10-31T05:08:30;11.90;99.90
21039;DHT22;10678;51.002;4.786;2023-10-31T05:10:57;11.80;99.90
21039;DHT22;10678;51.002;4.786;2023-10-31T05:13:23;11.80;99.90
21039;DHT22;10678;51.002;4.786;2023-10-31T05:15:49;11.80;99.90
21039;DHT22;10678;51.002;4.786;2023-10-31T05:18:14;11.80;99.90
21039;DHT22;10678;51.002;4.786;2023-10-31T05:20:40;11.80;99.90
21039;DHT22;10678;51.002;4.786;2023-10-31T05:23:06;11.70;99.90
21039;DHT22;10678;51.002;4.786;2023-10-31T05:25:32;11.70;99.90
21039;DHT22;10678;51.002;4.786;2023-10-31T05:27:58;11.70;99.90
21039;DHT22;10678;51.002;4.786;2023-10-31T05:30:24;11.70;99.90
21039;DHT22;10678;51.002;4.786;2023-10-31T05:32:50;11.70;99.90
21039;DHT22;10678;51.002;4.786;2023-10-31T05:35:16;11.70;99.90
21039;DHT22;10678;51.002;4.786;2023-10-31T05:37:42;11.60;99.90
21039;DHT22;10678;51.002;4.786;2023-10-31T05:40:08;11.60;99.90
21039;DHT22;10678;51.002;4.786;2023-10-31T05:42:34;11.70;99.90
21039;DHT22;10678;51.002;4.786;2023-10-31T05:45:00;11.60;99.90
21039;DHT22;10678;51.002;4.786;2023-10-31T05:47:25;11.70;99.90
21039;DHT22;10678;51.002;4.786;2023-10-31T05:49:51;11.70;99.90
21039;DHT22;10678;51.002;4.786;2023-10-31T05:52:17;11.60;99.90
21039;DHT22;10678;51.002;4.786;2023-10-31T05:54:43;11.70;99.90
21039;DHT22;10678;51.002;4.786;2023-10-31T05:57:08;11.60;99.90
21039;DHT22;10678;51.002;4.786;2023-10-31T05:59:34;11.60;99.90
21039;DHT22;10678;51.002;4.786;2023-10-31T06:01:59;11.80;99.90
21039;DHT22;10678;51.002;4.786;2023-10-31T06:04:25;11.80;99.90
21039;DHT22;10678;51.002;4.786;2023-10-31T06:06:51;11.70;99.90
21039;DHT22;10678;51.002;4.786;2023-10-31T06:09:17;11.80;99.90
21039;DHT22;10678;51.002;4.786;2023-10-31T06:11:43;11.80;99.90
21039;DHT22;10678;51.002;4.786;2023-10-31T06:14:10;11.80;99.90
21039;DHT22;10678;51.002;4.786;2023-10-31T06:16:43;11.80;99.90
21039;DHT22;10678;51.002;4.786;2023-10-31T06:19:09;11.80;99.90
21039;DHT22;10678;51.002;4.786;2023-10-31T06:21:35;11.80;99.90
21039;DHT22;10678;51.002;4.786;2023-10-31T06:24:02;11.80;99.90
21039;DHT22;10678;51.002;4.786;2023-10-31T06:26:27;11.70;99.90
21039;DHT22;10678;51.002;4.786;2023-10-31T06:28:53;11.70;99.90
21039;DHT22;10678;51.002;4.786;2023-10-31T06:31:19;11.70;99.90
21039;DHT22;10678;51.002;4.786;2023-10-31T06:33:44;11.70;99.90
21039;DHT22;10678;51.002;4.786;2023-10-31T06:36:10;11.60;99.90
21039;DHT22;10678;51.002;4.786;2023-10-31T06:38:35;11.50;99.90
21039;DHT22;10678;51.002;4.786;2023-10-31T06:41:01;11.60;99.90
21039;DHT22;10678;51.002;4.786;2023-10-31T06:43:27;11.60;99.90
21039;DHT22;10678;51.002;4.786;2023-10-31T06:45:54;11.50;99.90
21039;DHT22;10678;51.002;4.786;2023-10-31T06:48:20;11.50;99.90
21039;DHT22;10678;51.002;4.786;2023-10-31T06:50:45;11.50;99.90
21039;DHT22;10678;51.002;4.786;2023-10-31T06:53:11;11.50;99.90
21039;DHT22;10678;51.002;4.786;2023-10-31T06:55:37;11.60;99.90
21039;DHT22;10678;51.002;4.786;2023-10-31T06:58:02;11.60;99.90
21039;DHT22;10678;51.002;4.786;2023-10-31T07:00:28;11.60;99.90
21039;DHT22;10678;51.002;4.786;2023-10-31T07:02:54;11.60;99.90
21039;DHT22;10678;51.002;4.786;2023-10-31T07:05:20;11.60;99.90
21039;DHT22;10678;51.002;4.786;2023-10-31T07:07:46;11.60;99.90
21039;DHT22;10678;51.002;4.786;2023-10-31T07:10:12;11.60;99.90
21039;DHT22;10678;51.002;4.786;2023-10-31T07:12:38;11.60;99.90
21039;DHT22;10678;51.002;4.786;2023-10-31T07:15:04;11.60;99.90
21039;DHT22;10678;51.002;4.786;2023-10-31T07:17:30;11.60;99.90
21039;DHT22;10678;51.002;4.786;2023-10-31T07:19:56;11.50;99.90
21039;DHT22;10678;51.002;4.786;2023-10-31T07:22:22;11.50;99.90
21039;DHT22;10678;51.002;4.786;2023-10-31T07:24:50;11.50;99.90
21039;DHT22;10678;51.002;4.786;2023-10-31T07:27:16;11.50;99.90
21039;DHT22;10678;51.002;4.786;2023-10-31T07:29:41;11.50;99.90
21039;DHT22;10678;51.002;4.786;2023-10-31T07:32:10;11.60;99.90
21039;DHT22;10678;51.002;4.786;2023-10-31T07:34:36;11.60;99.90
21039;DHT22;10678;51.002;4.786;2023-10-31T07:37:01;11.70;99.90
21039;DHT22;10678;51.002;4.786;2023-10-31T07:39:27;11.60;99.90
21039;DHT22;10678;51.002;4.786;2023-10-31T07:41:53;11.70;99.90
21039;DHT22;10678;51.002;4.786;2023-10-31T07:44:18;11.70;99.90
21039;DHT22;10678;51.002;4.786;2023-10-31T07:46:44;11.80;99.90
21039;DHT22;10678;51.002;4.786;2023-10-31T07:49:10;11.70;99.90
21039;DHT22;10678;51.002;4.786;2023-10-31T07:51:36;11.80;99.90
21039;DHT22;10678;51.002;4.786;2023-10-31T07:54:01;11.90;99.90
21039;DHT22;10678;51.002;4.786;2023-10-31T07:56:27;11.90;99.90
21039;DHT22;10678;51.002;4.786;2023-10-31T07:58:53;11.90;99.90
21039;DHT22;10678;51.002;4.786;2023-10-31T08:01:20;12.00;99.90
21039;DHT22;10678;51.002;4.786;2023-10-31T08:03:47;12.10;99.90
21039;DHT22;10678;51.002;4.786;2023-10-31T08:06:13;12.20;99.90
21039;DHT22;10678;51.002;4.786;2023-10-31T08:08:39;12.10;99.90
21039;DHT22;10678;51.002;4.786;2023-10-31T08:11:08;12.10;99.90
21039;DHT22;10678;51.002;4.786;2023-10-31T08:13:33;12.00;99.90
21039;DHT22;10678;51.002;4.786;2023-10-31T08:15:59;12.10;99.90
21039;DHT22;10678;51.002;4.786;2023-10-31T08:18:25;12.20;99.90
21039;DHT22;10678;51.002;4.786;2023-10-31T08:20:50;12.30;99.90
21039;DHT22;10678;51.002;4.786;2023-10-31T08:23:17;12.40;99.90
21039;DHT22;10678;51.002;4.786;2023-10-31T08:25:43;12.60;99.90
21039;DHT22;10678;51.002;4.786;2023-10-31T08:28:09;12.70;99.90
21039;DHT22;10678;51.002;4.786;2023-10-31T08:30:34;12.90;99.90
21039;DHT22;10678;51.002;4.786;2023-10-31T08:33:01;13.10;99.90
21039;DHT22;10678;51.002;4.786;2023-10-31T08:35:27;13.20;99.90
21039;DHT22;10678;51.002;4.786;2023-10-31T08:37:53;13.40;99.90
21039;DHT22;10678;51.002;4.786;2023-10-31T08:40:19;13.40;99.90
21039;DHT22;10678;51.002;4.786;2023-10-31T08:42:45;13.50;99.90
21039;DHT22;10678;51.002;4.786;2023-10-31T08:45:11;13.60;99.90
21039;DHT22;10678;51.002;4.786;2023-10-31T08:47:36;13.60;99.90
21039;DHT22;10678;51.002;4.786;2023-10-31T08:50:02;13.70;99.90
21039;DHT22;10678;51.002;4.786;2023-10-31T08:52:28;13.60;99.90
21039;DHT22;10678;51.002;4.786;2023-10-31T08:54:53;13.70;99.90
21039;DHT22;10678;51.002;4.786;2023-10-31T08:57:19;13.50;99.90
21039;DHT22;10678;51.002;4.786;2023-10-31T08:59:45;13.50;99.90
21039;DHT22;10678;51.002;4.786;2023-10-31T09:02:10;13.50;99.90
21039;DHT22;10678;51.002;4.786;2023-10-31T09:04:36;13.40;99.90
21039;DHT22;10678;51.002;4.786;2023-10-31T09:07:02;13.50;99.90
21039;DHT22;10678;51.002;4.786;2023-10-31T09:09:27;13.60;99.90
21039;DHT22;10678;51.002;4.786;2023-10-31T09:11:53;13.80;99.90
21039;DHT22;10678;51.002;4.786;2023-10-31T09:14:19;13.90;99.90
21039;DHT22;10678;51.002;4.786;2023-10-31T09:16:45;13.90;99.90
21039;DHT22;10678;51.002;4.786;2023-10-31T09:19:10;13.80;99.90
21039;DHT22;10678;51.002;4.786;2023-10-31T09:21:36;13.80;99.90
21039;DHT22;10678;51.002;4.786;2023-10-31T09:24:02;13.80;99.90
21039;DHT22;10678;51.002;4.786;2023-10-31T09:26:28;13.80;99.90
21039;DHT22;10678;51.002;4.786;2023-10-31T09:28:55;13.80;99.90
21039;DHT22;10678;51.002;4.786;2023-10-31T09:31:20;13.90;99.90
21039;DHT22;10678;51.002;4.786;2023-10-31T09:33:46;13.90;99.90
21039;DHT22;10678;51.002;4.786;2023-10-31T09:36:12;13.90;99.90
21039;DHT22;10678;51.002;4.786;2023-10-31T09:38:40;13.80;99.90
21039;DHT22;10678;51.002;4.786;2023-10-31T09:41:06;13.70;99.90
21039;DHT22;10678;51.002;4.786;2023-10-31T09:43:32;13.90;99.90
21039;DHT22;10678;51.002;4.786;2023-10-31T09:45:58;14.00;99.90
21039;DHT22;10678;51.002;4.786;2023-10-31T09:48:26;14.20;99.90
21039;DHT22;10678;51.002;4.786;2023-10-31T09:50:52;14.30;99.90
21039;DHT22;10678;51.002;4.786;2023-10-31T09:53:19;14.40;99.90
21039;DHT22;10678;51.002;4.786;2023-10-31T09:55:46;14.40;99.90
21039;DHT22;10678;51.002;4.786;2023-10-31T09:58:12;14.40;99.90
21039;DHT22;10678;51.002;4.786;2023-10-31T10:00:38;14.70;99.90
21039;DHT22;10678;51.002;4.786;2023-10-31T10:03:09;14.80;99.90
21039;DHT22;10678;51.002;4.786;2023-10-31T10:05:35;15.00;99.90
21039;DHT22;10678;51.002;4.786;2023-10-31T10:08:01;15.20;99.90
21039;DHT22;10678;51.002;4.786;2023-10-31T10:10:27;15.50;99.90
21039;DHT22;10678;51.002;4.786;2023-10-31T10:12:55;15.80;99.90
21039;DHT22;10678;51.002;4.786;2023-10-31T10:15:21;15.80;99.90
21039;DHT22;10678;51.002;4.786;2023-10-31T10:17:53;15.80;99.90
21039;DHT22;10678;51.002;4.786;2023-10-31T10:20:19;15.80;99.90
21039;DHT22;10678;51.002;4.786;2023-10-31T10:22:45;15.70;99.90
21039;DHT22;10678;51.002;4.786;2023-10-31T10:25:14;15.30;99.90
21039;DHT22;10678;51.002;4.786;2023-10-31T10:27:43;15.20;99.90
21039;DHT22;10678;51.002;4.786;2023-10-31T10:30:09;15.30;99.90
21039;DHT22;10678;51.002;4.786;2023-10-31T10:32:35;15.30;99.90
21039;DHT22;10678;51.002;4.786;2023-10-31T10:35:01;15.30;99.90
21039;DHT22;10678;51.002;4.786;2023-10-31T10:37:27;15.30;99.90
21039;DHT22;10678;51.002;4.786;2023-10-31T10:39:53;15.10;99.90
21039;DHT22;10678;51.002;4.786;2023-10-31T10:42:51;15.00;99.90
21039;DHT22;10678;51.002;4.786;2023-10-31T10:45:23;15.00;99.90
21039;DHT22;10678;51.002;4.786;2023-10-31T10:47:50;15.10;99.90
21039;DHT22;10678;51.002;4.786;2023-10-31T10:50:19;15.10;99.90
21039;DHT22;10678;51.002;4.786;2023-10-31T10:52:54;14.90;99.90
21039;DHT22;10678;51.002;4.786;2023-10-31T10:55:25;15.00;99.90
21039;DHT22;10678;51.002;4.786;2023-10-31T10:58:04;14.90;99.90
21039;DHT22;10678;51.002;4.786;2023-10-31T11:00:31;15.00;99.90
21039;DHT22;10678;51.002;4.786;2023-10-31T11:02:57;14.90;99.90
21039;DHT22;10678;51.002;4.786;2023-10-31T11:05:24;14.90;99.90
21039;DHT22;10678;51.002;4.786;2023-10-31T11:07:49;14.90;99.90
21039;DHT22;10678;51.002;4.786;2023-10-31T11:10:17;14.70;99.90
21039;DHT22;10678;51.002;4.786;2023-10-31T11:12:43;14.70;99.90
21039;DHT22;10678;51.002;4.786;2023-10-31T11:15:12;14.60;99.90
21039;DHT22;10678;51.002;4.786;2023-10-31T11:17:41;14.70;99.90
21039;DHT22;10678;51.002;4.786;2023-10-31T11:20:10;14.80;99.90
21039;DHT22;10678;51.002;4.786;2023-10-31T11:22:41;14.80;99.90
21039;DHT22;10678;51.002;4.786;2023-10-31T11:25:13;14.80;99.90
21039;DHT22;10678;51.002;4.786;2023-10-31T11:27:38;14.90;99.90
21039;DHT22;10678;51.002;4.786;2023-10-31T11:30:29;15.10;99.90
21039;DHT22;10678;51.002;4.786;2023-10-31T11:32:58;15.20;99.90
21039;DHT22;10678;51.002;4.786;2023-10-31T11:35:25;15.20;99.90
21039;DHT22;10678;51.002;4.786;2023-10-31T11:38:04;15.20;99.90
21039;DHT22;10678;51.002;4.786;2023-10-31T11:40:33;15.30;99.90
21039;DHT22;10678;51.002;4.786;2023-10-31T11:43:03;15.30;99.90
21039;DHT22;10678;51.002;4.786;2023-10-31T11:48:07;15.40;99.90
21039;DHT22;10678;51.002;4.786;2023-10-31T11:50:34;15.60;99.90
21039;DHT22;10678;51.002;4.786;2023-10-31T11:53:10;15.60;99.90
21039;DHT22;10678;51.002;4.786;2023-10-31T11:55:41;15.60;99.90
21039;DHT22;10678;51.002;4.786;2023-10-31T11:58:18;15.60;99.90
21039;DHT22;10678;51.002;4.786;2023-10-31T12:00:51;15.50;99.90
21039;DHT22;10678;51.002;4.786;2023-10-31T12:03:19;15.40;99.90
21039;DHT22;10678;51.002;4.786;2023-10-31T12:05:55;15.20;99.90
21039;DHT22;10678;51.002;4.786;2023-10-31T12:08:28;15.10;99.90
21039;DHT22;10678;51.002;4.786;2023-10-31T12:11:03;15.00;99.90
21039;DHT22;10678;51.002;4.786;2023-10-31T12:13:29;14.90;99.90
21039;DHT22;10678;51.002;4.786;2023-10-31T12:15:54;14.90;99.90
21039;DHT22;10678;51.002;4.786;2023-10-31T12:18:20;14.70;99.90
21039;DHT22;10678;51.002;4.786;2023-10-31T12:20:50;14.60;99.90
21039;DHT22;10678;51.002;4.786;2023-10-31T12:23:17;14.50;99.90
21039;DHT22;10678;51.002;4.786;2023-10-31T12:25:49;14.50;99.90
21039;DHT22;10678;51.002;4.786;2023-10-31T12:28:23;14.60;99.90
21039;DHT22;10678;51.002;4.786;2023-10-31T12:30:50;14.60;99.90
21039;DHT22;10678;51.002;4.786;2023-10-31T12:33:17;14.60;99.90
21039;DHT22;10678;51.002;4.786;2023-10-31T12:35:43;14.50;99.90
21039;DHT22;10678;51.002;4.786;2023-10-31T12:38:13;14.50;99.90
21039;DHT22;10678;51.002;4.786;2023-10-31T12:40:44;14.40;99.90
21039;DHT22;10678;51.002;4.786;2023-10-31T12:43:10;14.30;99.90
21039;DHT22;10678;51.002;4.786;2023-10-31T12:45:36;14.20;99.90
21039;DHT22;10678;51.002;4.786;2023-10-31T12:48:08;14.10;99.90
21039;DHT22;10678;51.002;4.786;2023-10-31T12:50:36;14.10;99.90
21039;DHT22;10678;51.002;4.786;2023-10-31T12:53:03;14.10;99.90
21039;DHT22;10678;51.002;4.786;2023-10-31T12:55:30;14.10;99.90
21039;DHT22;10678;51.002;4.786;2023-10-31T12:57:57;14.20;99.90
21039;DHT22;10678;51.002;4.786;2023-10-31T13:00:33;14.20;99.90
21039;DHT22;10678;51.002;4.786;2023-10-31T13:05:29;14.20;99.90
21039;DHT22;10678;51.002;4.786;2023-10-31T13:07:56;14.20;99.90
21039;DHT22;10678;51.002;4.786;2023-10-31T13:10:27;14.20;99.90
21039;DHT22;10678;51.002;4.786;2023-10-31T13:12:53;14.20;99.90
21039;DHT22;10678;51.002;4.786;2023-10-31T13:15:21;14.20;99.90
21039;DHT22;10678;51.002;4.786;2023-10-31T13:17:48;14.20;99.90
21039;DHT22;10678;51.002;4.786;2023-10-31T13:20:15;14.20;99.90
21039;DHT22;10678;51.002;4.786;2023-10-31T13:22:41;14.20;99.90
21039;DHT22;10678;51.002;4.786;2023-10-31T13:25:09;14.20;99.90
21039;DHT22;10678;51.002;4.786;2023-10-31T13:27:45;14.30;99.90
21039;DHT22;10678;51.002;4.786;2023-10-31T13:30:16;14.20;99.90
21039;DHT22;10678;51.002;4.786;2023-10-31T13:32:43;14.20;99.90
21039;DHT22;10678;51.002;4.786;2023-10-31T13:35:09;14.20;99.90
21039;DHT22;10678;51.002;4.786;2023-10-31T13:37:35;14.20;99.90
21039;DHT22;10678;51.002;4.786;2023-10-31T13:40:01;14.20;99.90
21039;DHT22;10678;51.002;4.786;2023-10-31T13:42:26;14.20;99.90
21039;DHT22;10678;51.002;4.786;2023-10-31T13:44:53;14.20;99.90
21039;DHT22;10678;51.002;4.786;2023-10-31T13:47:19;14.10;99.90
21039;DHT22;10678;51.002;4.786;2023-10-31T13:49:45;14.20;99.90
21039;DHT22;10678;51.002;4.786;2023-10-31T13:52:10;14.20;99.90
21039;DHT22;10678;51.002;4.786;2023-10-31T13:54:36;14.00;99.90
21039;DHT22;10678;51.002;4.786;2023-10-31T13:57:02;14.00;99.90
21039;DHT22;10678;51.002;4.786;2023-10-31T13:59:28;14.00;99.90
21039;DHT22;10678;51.002;4.786;2023-10-31T14:01:54;14.00;99.90
21039;DHT22;10678;51.002;4.786;2023-10-31T14:04:20;13.90;99.90
21039;DHT22;10678;51.002;4.786;2023-10-31T14:06:46;13.80;99.90
21039;DHT22;10678;51.002;4.786;2023-10-31T14:09:12;13.90;99.90
21039;DHT22;10678;51.002;4.786;2023-10-31T14:11:41;14.00;99.90
21039;DHT22;10678;51.002;4.786;2023-10-31T14:14:07;13.90;99.90
21039;DHT22;10678;51.002;4.786;2023-10-31T14:16:39;13.80;99.90
21039;DHT22;10678;51.002;4.786;2023-10-31T14:19:05;13.90;99.90
21039;DHT22;10678;51.002;4.786;2023-10-31T14:21:32;14.00;99.90
21039;DHT22;10678;51.002;4.786;2023-10-31T14:23:59;14.20;99.90
21039;DHT22;10678;51.002;4.786;2023-10-31T14:26:24;14.40;99.90
21039;DHT22;10678;51.002;4.786;2023-10-31T14:28:50;14.40;99.90
21039;DHT22;10678;51.002;4.786;2023-10-31T14:31:16;14.60;99.90
21039;DHT22;10678;51.002;4.786;2023-10-31T14:33:42;14.70;99.90
21039;DHT22;10678;51.002;4.786;2023-10-31T14:36:09;14.70;99.90
21039;DHT22;10678;51.002;4.786;2023-10-31T14:38:37;14.80;99.90
21039;DHT22;10678;51.002;4.786;2023-10-31T14:41:03;14.70;99.90
21039;DHT22;10678;51.002;4.786;2023-10-31T14:43:29;14.70;99.90
21039;DHT22;10678;51.002;4.786;2023-10-31T14:45:55;14.80;99.90
21039;DHT22;10678;51.002;4.786;2023-10-31T14:48:21;14.80;99.90
21039;DHT22;10678;51.002;4.786;2023-10-31T14:50:47;14.70;99.90
21039;DHT22;10678;51.002;4.786;2023-10-31T14:53:14;14.50;99.90
21039;DHT22;10678;51.002;4.786;2023-10-31T14:55:40;14.50;99.90
21039;DHT22;10678;51.002;4.786;2023-10-31T14:58:06;14.60;99.90
21039;DHT22;10678;51.002;4.786;2023-10-31T15:00:34;14.50;99.90
21039;DHT22;10678;51.002;4.786;2023-10-31T15:02:59;14.60;99.90
21039;DHT22;10678;51.002;4.786;2023-10-31T15:05:25;14.60;99.90
21039;DHT22;10678;51.002;4.786;2023-10-31T15:07:50;14.50;99.90
21039;DHT22;10678;51.002;4.786;2023-10-31T15:10:18;14.40;99.90
21039;DHT22;10678;51.002;4.786;2023-10-31T15:12:46;14.30;99.90
21039;DHT22;10678;51.002;4.786;2023-10-31T15:15:12;14.30;99.90
21039;DHT22;10678;51.002;4.786;2023-10-31T15:17:38;14.20;99.90
21039;DHT22;10678;51.002;4.786;2023-10-31T15:20:04;14.20;99.90
21039;DHT22;10678;51.002;4.786;2023-10-31T15:22:31;14.20;99.90
21039;DHT22;10678;51.002;4.786;2023-10-31T15:24:57;14.10;99.90
21039;DHT22;10678;51.002;4.786;2023-10-31T15:27:23;14.00;99.90
21039;DHT22;10678;51.002;4.786;2023-10-31T15:29:48;14.00;99.90
21039;DHT22;10678;51.002;4.786;2023-10-31T15:32:14;14.00;99.90